Time;durP1;ratioP1;P1;durP2;ratioP2;P2;SDS_P1;SDS_P2;PMS_P1;PMS_P2;Temp;Humidity;BMP_temperature;BMP_pressure;BME280_temperature;BME280_humidity;BME280_pressure;Samples;Min_cycle;Max_cycle;Signal;HPM_P1;HPM_P2
2021/09/28 00:01:32;;;;;;;26.10;21.33;;;;;;;19.16;91.00;100396.50;5117353;28;20105;-54
2021/09/28 00:03:58;;;;;;;28.98;21.83;;;;;;;19.15;90.75;100409.16;5116533;28;20055;-55
2021/09/28 00:06:23;;;;;;;28.13;20.88;;;;;;;19.17;90.67;100406.63;5117086;28;20031;-56
2021/09/28 00:08:48;;;;;;;31.55;22.30;;;;;;;19.15;90.69;100395.72;5117208;28;20036;-56
2021/09/28 00:11:14;;;;;;;28.05;23.08;;;;;;;19.17;90.75;100400.16;5117022;28;20039;-56
2021/09/28 00:13:39;;;;;;;31.15;21.95;;;;;;;19.15;90.52;100394.91;5117355;28;20031;-54
2021/09/28 00:16:05;;;;;;;26.42;20.73;;;;;;;19.14;90.76;100393.31;5116970;28;20033;-56
2021/09/28 00:18:31;;;;;;;25.83;19.85;;;;;;;19.12;90.70;100408.03;5116840;28;20036;-56
2021/09/28 00:20:57;;;;;;;29.13;21.05;;;;;;;19.10;90.67;100393.44;5116781;28;20035;-54
2021/09/28 00:23:22;;;;;;;28.77;20.52;;;;;;;19.10;90.69;100395.50;5117095;28;20176;-55
2021/09/28 00:25:49;;;;;;;36.28;21.27;;;;;;;19.08;90.70;100403.72;5116783;28;20046;-56
2021/09/28 00:28:15;;;;;;;26.70;20.90;;;;;;;19.08;90.69;100395.19;5116428;28;20773;-57
2021/09/28 00:30:40;;;;;;;29.45;21.23;;;;;;;19.06;90.31;100404.19;5116772;28;20066;-54
2021/09/28 00:33:06;;;;;;;25.02;19.50;;;;;;;19.06;90.57;100392.00;5116648;28;20023;-53
2021/09/28 00:35:31;;;;;;;27.77;21.35;;;;;;;19.05;90.47;100402.59;5116129;28;20092;-53
2021/09/28 00:42:07;;;;;;;30.17;21.93;;;;;;;19.01;90.06;100384.03;5107351;28;20361;-55
2021/09/28 00:44:42;;;;;;;27.25;22.13;;;;;;;18.99;90.51;100386.56;5112637;28;20396;-55
2021/09/28 00:47:10;;;;;;;28.35;22.30;;;;;;;18.98;90.28;100391.47;5115868;28;20082;-57
2021/09/28 00:49:39;;;;;;;28.65;23.13;;;;;;;19.00;90.40;100388.94;5108726;28;20301;-56
2021/09/28 00:52:05;;;;;;;32.67;23.10;;;;;;;19.00;90.25;100379.59;5104363;28;20055;-56
2021/09/28 00:54:31;;;;;;;30.05;22.70;;;;;;;18.98;90.32;100388.59;5116185;28;20024;-54
2021/09/28 00:56:58;;;;;;;30.35;23.02;;;;;;;18.99;89.98;100389.41;5116321;28;20024;-56
2021/09/28 00:59:23;;;;;;;30.15;23.42;;;;;;;18.98;89.84;100382.13;5114083;28;20039;-52
2021/09/28 01:01:48;;;;;;;31.10;23.75;;;;;;;18.97;90.07;100378.47;5116069;28;20035;-51
2021/09/28 01:04:16;;;;;;;31.40;24.48;;;;;;;18.97;89.80;100383.38;5115888;28;20031;-51
2021/09/28 01:06:43;;;;;;;31.63;23.33;;;;;;;18.96;89.54;100384.63;5116287;28;20397;-54
2021/09/28 01:09:10;;;;;;;31.17;24.42;;;;;;;18.95;90.07;100386.69;5115883;28;20446;-53
2021/09/28 01:11:37;;;;;;;29.25;24.58;;;;;;;18.94;89.69;100385.09;5116108;28;20480;-54
2021/09/28 01:14:02;;;;;;;31.85;25.23;;;;;;;18.93;89.78;100382.72;5115649;28;20323;-56
2021/09/28 01:16:28;;;;;;;36.03;26.58;;;;;;;18.90;89.50;100381.59;5115004;28;20028;-55
2021/09/28 01:18:53;;;;;;;32.08;24.67;;;;;;;18.91;89.49;100382.38;5115715;28;20024;-56
2021/09/28 01:21:20;;;;;;;31.10;24.13;;;;;;;18.90;89.63;100389.28;5115811;28;20406;-54
2021/09/28 01:23:45;;;;;;;32.92;25.88;;;;;;;18.88;89.59;100384.06;5113098;28;20043;-56
2021/09/28 01:26:20;;;;;;;31.42;25.13;;;;;;;18.88;89.51;100380.41;5114426;28;20141;-56
2021/09/28 01:28:45;;;;;;;30.90;24.85;;;;;;;18.86;89.44;100382.94;5105196;28;20038;-56
2021/09/28 01:31:11;;;;;;;35.97;26.10;;;;;;;18.83;89.72;100382.59;5115613;28;20411;-56
2021/09/28 01:33:38;;;;;;;34.38;26.27;;;;;;;18.83;89.78;100388.28;5115636;28;20438;-53
2021/09/28 01:36:04;;;;;;;31.95;25.83;;;;;;;18.81;89.78;100382.25;5114322;28;20040;-56
2021/09/28 01:38:29;;;;;;;31.48;25.48;;;;;;;18.80;90.25;100377.03;5115866;28;20310;-56
2021/09/28 01:40:55;;;;;;;34.10;26.38;;;;;;;18.79;90.25;100373.41;5115700;28;20035;-57
2021/09/28 01:43:20;;;;;;;32.60;25.50;;;;;;;18.78;89.79;100383.19;5115824;28;20445;-54
2021/09/28 01:45:48;;;;;;;34.20;26.40;;;;;;;18.76;90.10;100380.00;5102109;28;20027;-50
2021/09/28 01:48:14;;;;;;;34.15;26.15;;;;;;;18.75;90.28;100378.41;5115359;28;20031;-54
2021/09/28 01:50:39;;;;;;;33.92;26.10;;;;;;;18.72;90.28;100376.50;5112910;28;20027;-52
2021/09/28 01:53:05;;;;;;;39.33;25.38;;;;;;;18.70;90.23;100384.69;5095356;28;20114;-53
2021/09/28 01:55:30;;;;;;;30.42;24.52;;;;;;;18.68;90.09;100377.88;5095162;28;20431;-55
2021/09/28 01:57:56;;;;;;;33.67;25.85;;;;;;;18.66;90.29;100389.72;5095150;28;20025;-48
2021/09/28 02:00:22;;;;;;;36.03;27.05;;;;;;;18.65;90.22;100390.97;5094741;28;20036;-55
2021/09/28 02:02:48;;;;;;;36.10;26.83;;;;;;;18.63;90.06;100384.94;5094671;28;20028;-56
2021/09/28 02:05:13;;;;;;;39.53;26.83;;;;;;;18.62;90.15;100386.19;5095286;28;20039;-54
2021/09/28 02:07:38;;;;;;;39.50;27.35;;;;;;;18.63;90.32;100384.16;5095014;28;20054;-51
2021/09/28 02:10:05;;;;;;;33.40;26.20;;;;;;;18.63;90.23;100392.69;5094895;28;20068;-56
2021/09/28 02:12:30;;;;;;;37.15;26.45;;;;;;;18.63;90.12;100392.69;5095293;28;20056;-50
2021/09/28 02:14:56;;;;;;;40.80;27.98;;;;;;;18.62;90.16;100386.19;5094399;28;20074;-51
2021/09/28 02:17:21;;;;;;;37.13;26.98;;;;;;;18.64;89.95;100388.59;5066461;28;20104;-56
2021/09/28 02:19:46;;;;;;;35.97;25.40;;;;;;;18.62;90.34;100389.03;5093324;28;20074;-56
2021/09/28 02:22:12;;;;;;;36.85;25.65;;;;;;;18.60;90.37;100385.81;5094603;28;20035;-54
2021/09/28 02:24:37;;;;;;;42.25;28.17;;;;;;;18.58;90.23;100379.78;5094194;28;20040;-54
2021/09/28 02:27:03;;;;;;;36.13;27.33;;;;;;;18.57;90.62;100386.72;5095942;28;20053;-51
2021/09/28 02:29:28;;;;;;;37.22;27.08;;;;;;;18.56;90.41;100387.97;5098313;28;20032;-53
2021/09/28 02:31:53;;;;;;;36.20;27.08;;;;;;;18.55;90.46;100386.38;5097771;28;21212;-50
2021/09/28 02:34:19;;;;;;;34.00;26.63;;;;;;;18.54;90.48;100384.81;5098532;28;20081;-54
2021/09/28 02:36:44;;;;;;;36.00;26.25;;;;;;;18.53;90.93;100383.22;5098872;28;20035;-53
2021/09/28 02:39:09;;;;;;;36.33;25.15;;;;;;;18.52;90.63;100385.25;5098409;28;20429;-52
2021/09/28 02:41:36;;;;;;;37.33;27.13;;;;;;;18.51;90.68;100374.34;5098512;28;20412;-56
2021/09/28 02:44:03;;;;;;;40.25;25.35;;;;;;;18.50;90.95;100384.13;5098250;28;20034;-47
2021/09/28 02:46:29;;;;;;;34.10;26.38;;;;;;;18.50;90.65;100372.75;5098186;28;20036;-54
2021/09/28 02:48:54;;;;;;;36.80;26.90;;;;;;;18.50;90.70;100375.59;5098496;28;20039;-51
2021/09/28 02:51:20;;;;;;;43.38;26.23;;;;;;;18.51;90.87;100371.50;5098064;28;20036;-51
2021/09/28 02:53:45;;;;;;;34.28;25.45;;;;;;;18.51;90.73;100380.03;5098135;28;20071;-55
2021/09/28 02:56:10;;;;;;;37.85;25.75;;;;;;;18.50;90.74;100378.44;5098407;28;20058;-54
2021/09/28 02:58:36;;;;;;;33.90;24.75;;;;;;;18.48;90.42;100380.94;5097868;28;20089;-52
2021/09/28 03:01:01;;;;;;;34.97;24.65;;;;;;;18.47;90.37;100373.66;5097913;28;20031;-51
2021/09/28 03:03:27;;;;;;;34.63;23.67;;;;;;;18.47;90.44;100377.31;5098304;28;20082;-55
2021/09/28 03:05:52;;;;;;;35.35;24.60;;;;;;;18.47;90.34;100379.34;5097681;28;20047;-55
2021/09/28 03:08:18;;;;;;;38.17;25.02;;;;;;;18.45;90.57;100387.56;5098070;28;20062;-53
2021/09/28 03:10:43;;;;;;;36.05;25.23;;;;;;;18.44;90.45;100380.28;5098237;28;20068;-55
2021/09/28 03:13:10;;;;;;;34.00;23.73;;;;;;;18.45;90.48;100376.97;5097877;28;20111;-54
2021/09/28 03:15:35;;;;;;;34.05;24.10;;;;;;;18.44;90.72;100381.06;5097761;28;20024;-53
2021/09/28 03:18:01;;;;;;;37.70;24.77;;;;;;;18.44;90.37;100374.59;5098100;28;20059;-56
2021/09/28 03:20:26;;;;;;;35.08;25.30;;;;;;;18.43;90.60;100373.78;5098227;28;20110;-51
2021/09/28 03:22:51;;;;;;;32.20;23.70;;;;;;;18.44;90.58;100374.59;5097413;28;20061;-56
2021/09/28 03:25:17;;;;;;;37.00;25.13;;;;;;;18.42;90.84;100377.09;5097887;28;20081;-53
2021/09/28 03:27:42;;;;;;;34.83;23.30;;;;;;;18.40;91.04;100377.56;5097480;28;20024;-55
2021/09/28 03:30:08;;;;;;;37.33;24.30;;;;;;;18.41;90.96;100375.50;5076325;28;20040;-54
2021/09/28 03:32:36;;;;;;;39.05;23.80;;;;;;;18.42;91.41;100377.09;5097619;28;20031;-57
2021/09/28 03:35:04;;;;;;;36.35;24.30;;;;;;;18.43;90.72;100378.69;5096045;28;20084;-56
2021/09/28 03:37:30;;;;;;;35.15;23.13;;;;;;;18.42;90.89;100388.47;5097717;28;20024;-54
2021/09/28 03:39:55;;;;;;;35.40;24.85;;;;;;;18.41;90.65;100390.53;5096156;28;20062;-56
2021/09/28 03:42:20;;;;;;;38.47;25.15;;;;;;;18.41;90.56;100392.56;5097750;28;20040;-56
2021/09/28 03:44:46;;;;;;;37.63;25.92;;;;;;;18.39;90.92;100395.09;5097059;28;20108;-54
2021/09/28 03:47:11;;;;;;;34.17;25.02;;;;;;;18.37;90.66;100398.38;5097058;28;20323;-56
2021/09/28 03:49:36;;;;;;;35.50;24.42;;;;;;;18.37;90.83;100398.38;5079317;28;20028;-56
2021/09/28 03:52:02;;;;;;;34.88;24.52;;;;;;;18.38;90.73;100399.19;5096953;28;20052;-56
2021/09/28 03:54:27;;;;;;;32.42;22.95;;;;;;;18.36;90.91;100398.84;5097390;28;20307;-54
2021/09/28 03:56:53;;;;;;;32.00;23.35;;;;;;;18.35;90.90;100402.91;5096907;28;20052;-54
2021/09/28 03:59:18;;;;;;;33.88;23.83;;;;;;;18.35;91.11;100394.38;5095950;28;20047;-57
2021/09/28 04:01:43;;;;;;;35.60;23.90;;;;;;;18.36;90.91;100396.00;5096782;28;20036;-55
2021/09/28 04:04:10;;;;;;;37.88;24.02;;;;;;;18.34;90.89;100399.28;5096715;28;20416;-53
2021/09/28 04:06:35;;;;;;;31.52;23.42;;;;;;;18.32;90.61;100393.25;5097001;28;20020;-55
2021/09/28 04:09:01;;;;;;;30.10;22.73;;;;;;;18.34;90.68;100404.16;5096782;28;20035;-54
2021/09/28 04:11:26;;;;;;;36.88;23.80;;;;;;;18.31;90.71;100405.88;5096855;28;20064;-55
2021/09/28 04:13:52;;;;;;;31.88;22.27;;;;;;;18.31;90.38;100411.56;5096568;28;20089;-54
2021/09/28 04:16:17;;;;;;;31.13;23.13;;;;;;;18.30;90.34;100412.03;5096422;28;20028;-53
2021/09/28 04:18:45;;;;;;;31.77;23.10;;;;;;;18.27;90.51;100410.88;5096665;28;20032;-55
2021/09/28 04:21:11;;;;;;;33.53;23.05;;;;;;;18.27;90.57;100408.03;5096699;28;20092;-53
2021/09/28 04:23:37;;;;;;;31.63;21.77;;;;;;;18.27;90.71;100410.88;5096719;28;20107;-56
2021/09/28 04:26:02;;;;;;;32.78;22.38;;;;;;;18.27;90.66;100408.03;5096330;28;20032;-50
2021/09/28 04:28:28;;;;;;;30.73;22.00;;;;;;;18.27;90.96;100415.78;5096229;28;20029;-56
2021/09/28 04:30:54;;;;;;;34.60;22.77;;;;;;;18.27;90.57;100410.09;5096459;28;20032;-56
2021/09/28 04:33:19;;;;;;;33.65;22.50;;;;;;;18.23;90.91;100411.00;5086634;28;20617;-53
2021/09/28 04:35:44;;;;;;;37.38;21.65;;;;;;;18.23;91.29;100405.31;5085457;28;20162;-55
2021/09/28 04:38:10;;;;;;;29.33;19.98;;;;;;;18.23;90.99;100410.22;5090657;28;20031;-55
2021/09/28 04:40:35;;;;;;;30.02;22.45;;;;;;;18.21;91.37;100413.50;5090735;28;20035;-51
2021/09/28 04:43:01;;;;;;;33.33;22.33;;;;;;;18.19;91.26;100409.53;5092447;28;20128;-53
2021/09/28 04:45:26;;;;;;;31.42;22.45;;;;;;;18.18;91.67;100417.28;5095295;28;20384;-52
2021/09/28 04:47:51;;;;;;;33.22;22.65;;;;;;;18.17;91.22;100421.38;5094096;28;20035;-52
2021/09/28 04:50:17;;;;;;;34.75;22.77;;;;;;;18.17;91.10;100417.72;5092746;28;20028;-53
2021/09/28 04:52:42;;;;;;;27.92;21.67;;;;;;;18.15;91.38;100421.03;5095677;28;20382;-56
2021/09/28 04:55:08;;;;;;;32.72;21.48;;;;;;;18.14;91.41;100422.28;5095195;28;20036;-55
2021/09/28 04:57:34;;;;;;;32.22;21.75;;;;;;;18.14;91.21;100419.44;5090879;28;20024;-55
2021/09/28 04:59:59;;;;;;;35.70;22.73;;;;;;;18.14;91.31;100425.13;5088163;28;20098;-53
2021/09/28 05:02:25;;;;;;;30.20;21.05;;;;;;;18.11;91.46;100420.34;5085197;28;20032;-54
2021/09/28 05:04:50;;;;;;;32.88;22.23;;;;;;;18.10;91.47;100415.91;5087023;28;20042;-52
2021/09/28 05:07:15;;;;;;;32.20;22.67;;;;;;;18.10;91.55;100423.66;5086654;28;20039;-55
2021/09/28 05:09:41;;;;;;;31.25;22.65;;;;;;;18.10;91.34;100423.66;5095587;28;20051;-51
2021/09/28 05:12:07;;;;;;;31.35;21.50;;;;;;;18.10;91.90;100420.81;5095056;28;20036;-56
2021/09/28 05:14:32;;;;;;;33.70;21.95;;;;;;;18.09;91.81;100417.16;5088938;28;20390;-53
2021/09/28 05:16:58;;;;;;;29.75;21.60;;;;;;;18.08;91.77;100418.41;5095383;28;20464;-56
2021/09/28 05:19:24;;;;;;;27.88;21.08;;;;;;;18.07;91.59;100422.47;4848835;28;5001897;-55
2021/09/28 05:21:50;;;;;;;34.13;22.30;;;;;;;18.06;91.54;100420.88;5095328;28;20330;-53
2021/09/28 05:24:15;;;;;;;30.73;22.95;;;;;;;18.08;91.72;100428.97;5095592;28;20039;-50
2021/09/28 05:26:41;;;;;;;32.72;22.05;;;;;;;18.07;91.44;100427.38;5095119;28;20047;-55
2021/09/28 05:29:06;;;;;;;29.55;22.70;;;;;;;18.06;91.78;100417.25;5095293;28;20046;-56
2021/09/28 05:31:31;;;;;;;33.50;23.20;;;;;;;18.05;91.55;100419.28;5095386;28;20028;-53
2021/09/28 05:33:57;;;;;;;32.28;22.67;;;;;;;18.06;91.67;100429.41;5094725;28;20044;-54
2021/09/28 05:36:22;;;;;;;34.67;22.98;;;;;;;18.07;91.88;100430.22;5089268;28;20027;-56
2021/09/28 05:38:48;;;;;;;31.80;22.48;;;;;;;18.06;91.94;100425.78;5091597;28;20628;-54
2021/09/28 05:41:14;;;;;;;33.67;22.60;;;;;;;18.05;91.99;100427.81;5095345;28;20032;-59
2021/09/28 05:43:39;;;;;;;32.65;24.33;;;;;;;18.07;91.96;100433.84;5095130;28;20481;-53
2021/09/28 05:46:06;;;;;;;32.47;24.52;;;;;;;18.06;91.74;100435.09;5095134;28;20036;-53
2021/09/28 05:48:31;;;;;;;29.85;20.80;;;;;;;18.07;91.85;100439.53;5095260;28;20492;-55
2021/09/28 05:50:56;;;;;;;34.25;23.77;;;;;;;18.06;91.81;100431.47;5095041;28;20040;-54
2021/09/28 05:53:22;;;;;;;34.28;24.05;;;;;;;18.06;92.00;100440.78;5094936;28;20328;-56
2021/09/28 05:55:48;;;;;;;31.00;23.98;;;;;;;18.07;91.89;100435.91;5095482;28;20035;-52
2021/09/28 05:58:13;;;;;;;35.28;23.15;;;;;;;18.09;92.27;100439.91;5095504;28;20020;-56
2021/09/28 06:00:39;;;;;;;35.78;24.40;;;;;;;18.09;92.21;100445.59;5095103;28;20434;-50
2021/09/28 06:03:05;;;;;;;31.65;24.15;;;;;;;18.11;92.31;100445.94;5098260;28;20115;-48
2021/09/28 06:05:31;;;;;;;31.42;23.40;;;;;;;18.11;92.26;100451.63;5099715;28;20118;-51
2021/09/28 06:07:56;;;;;;;35.92;23.63;;;;;;;18.12;92.22;100450.38;5098634;28;20028;-56
2021/09/28 06:10:21;;;;;;;29.10;23.13;;;;;;;18.15;91.92;100460.06;5099300;28;20149;-53
2021/09/28 06:12:47;;;;;;;30.10;23.60;;;;;;;18.13;92.13;100460.50;5098941;28;20089;-55
2021/09/28 06:15:13;;;;;;;32.58;22.00;;;;;;;18.15;92.30;100457.22;5099182;28;20122;-56
2021/09/28 06:17:38;;;;;;;37.40;24.98;;;;;;;18.16;92.14;100461.66;5099056;28;20039;-54
2021/09/28 06:20:05;;;;;;;27.05;22.02;;;;;;;18.17;92.15;100461.19;5098989;28;20027;-54
2021/09/28 06:22:30;;;;;;;31.20;23.20;;;;;;;18.18;92.18;100470.53;5098894;28;20416;-55
2021/09/28 06:24:56;;;;;;;31.40;23.20;;;;;;;18.20;92.52;100468.81;5098570;28;20058;-56
2021/09/28 06:27:23;;;;;;;28.60;22.35;;;;;;;18.20;92.61;100465.19;5099176;28;20043;-53
2021/09/28 06:29:49;;;;;;;34.08;23.42;;;;;;;18.21;92.51;100473.25;5098627;28;20308;-55
2021/09/28 06:32:17;;;;;;;30.23;23.08;;;;;;;18.20;92.44;100480.19;5098691;28;20034;-54
2021/09/28 06:34:43;;;;;;;34.70;22.50;;;;;;;18.23;92.47;100476.44;5098524;28;20412;-55
2021/09/28 06:37:08;;;;;;;27.77;21.80;;;;;;;18.27;92.20;100484.06;5098544;28;20028;-52
2021/09/28 06:39:34;;;;;;;28.75;21.05;;;;;;;18.30;92.44;100494.53;5098722;28;20062;-52
2021/09/28 06:41:59;;;;;;;37.10;22.38;;;;;;;18.30;92.13;100488.84;5098322;28;20032;-53
2021/09/28 06:44:25;;;;;;;27.10;21.17;;;;;;;18.31;92.47;100488.38;5098483;28;20043;-54
2021/09/28 06:46:50;;;;;;;28.45;21.33;;;;;;;18.35;92.89;100493.97;5098267;28;20115;-53
2021/09/28 06:49:15;;;;;;;33.90;23.27;;;;;;;18.37;92.56;100491.50;5098363;28;20028;-56
2021/09/28 06:51:40;;;;;;;29.90;22.75;;;;;;;18.38;92.84;100484.56;5098117;28;20452;-47
2021/09/28 06:54:06;;;;;;;32.22;21.67;;;;;;;18.40;93.11;100487.75;5098252;28;20076;-55
2021/09/28 06:56:31;;;;;;;28.88;21.63;;;;;;;18.43;93.17;100483.97;5098240;28;20111;-51
2021/09/28 06:58:58;;;;;;;27.98;20.70;;;;;;;18.47;93.15;100488.31;5098119;28;20039;-56
2021/09/28 07:01:23;;;;;;;28.42;21.05;;;;;;;18.51;92.89;100480.44;5080176;28;20114;-55
2021/09/28 07:03:48;;;;;;;25.27;21.55;;;;;;;18.57;92.72;100485.56;5098044;28;20514;-55
2021/09/28 07:06:14;;;;;;;26.92;21.00;;;;;;;18.61;93.01;100486.25;5097788;28;20035;-54
2021/09/28 07:08:40;;;;;;;28.30;21.73;;;;;;;18.68;93.37;100484.00;5097948;28;20067;-53
2021/09/28 07:11:05;;;;;;;25.80;19.92;;;;;;;18.81;93.59;100490.47;5097921;28;20039;-52
2021/09/28 07:13:30;;;;;;;26.10;20.88;;;;;;;18.96;93.18;100495.72;5097919;28;20688;-53
2021/09/28 07:15:56;;;;;;;26.38;20.58;;;;;;;19.06;92.40;100491.69;5098064;28;20040;-54
2021/09/28 07:18:21;;;;;;;24.42;20.30;;;;;;;19.12;92.00;100502.03;5098199;28;20093;-56
2021/09/28 07:20:46;;;;;;;24.13;19.35;;;;;;;19.15;91.08;100506.81;5097786;28;20039;-56
2021/09/28 07:23:12;;;;;;;27.58;19.20;;;;;;;19.16;90.19;100510.47;5079842;28;20039;-56
2021/09/28 07:25:38;;;;;;;28.85;20.20;;;;;;;19.18;89.72;100510.84;5097897;28;20030;-56
2021/09/28 07:28:03;;;;;;;24.23;18.95;;;;;;;19.17;89.56;100512.06;5097248;28;20127;-55
2021/09/28 07:30:31;;;;;;;24.55;19.75;;;;;;;19.17;89.55;100509.22;5097805;28;20131;-56
2021/09/28 07:32:57;;;;;;;25.77;19.33;;;;;;;19.21;89.51;100515.59;5097634;28;20386;-56
2021/09/28 07:35:22;;;;;;;21.67;17.95;;;;;;;19.23;89.27;100510.25;5097341;28;20092;-56
2021/09/28 07:37:48;;;;;;;22.67;18.20;;;;;;;19.25;89.19;100513.44;5097420;28;20408;-56
2021/09/28 07:40:14;;;;;;;26.42;18.52;;;;;;;19.26;88.77;100515.03;5097392;28;20032;-56
2021/09/28 07:42:39;;;;;;;21.27;17.10;;;;;;;19.31;88.34;100517.28;5097235;28;20035;-58
2021/09/28 07:45:06;;;;;;;20.73;17.10;;;;;;;19.34;87.68;100513.50;5097030;28;20035;-55
2021/09/28 07:47:32;;;;;;;20.88;16.52;;;;;;;19.37;86.45;100520.34;5097377;28;20423;-56
2021/09/28 07:49:57;;;;;;;20.23;16.42;;;;;;;19.43;85.94;100525.00;5096953;28;20101;-56
2021/09/28 07:52:23;;;;;;;22.75;17.45;;;;;;;19.49;85.91;100532.97;5096633;28;20347;-56
2021/09/28 07:54:48;;;;;;;23.33;17.55;;;;;;;19.55;85.78;100525.47;5097295;28;20032;-55
2021/09/28 07:57:13;;;;;;;21.92;17.90;;;;;;;19.58;85.98;100525.31;5097060;28;20020;-56
2021/09/28 07:59:39;;;;;;;19.05;16.17;;;;;;;19.60;86.00;100537.06;5096833;28;20028;-52
2021/09/28 08:02:05;;;;;;;24.88;18.67;;;;;;;19.63;85.16;100541.84;5097491;28;20048;-56
2021/09/28 08:04:31;;;;;;;23.23;16.42;;;;;;;19.66;85.09;100551.53;5096685;28;20416;-56
2021/09/28 08:06:57;;;;;;;24.25;16.70;;;;;;;19.68;84.98;100549.00;5097169;28;20032;-56
2021/09/28 08:09:22;;;;;;;21.17;16.95;;;;;;;19.67;85.51;100553.13;5097085;28;20067;-54
2021/09/28 08:11:48;;;;;;;19.90;16.88;;;;;;;19.67;85.37;100556.75;5097114;28;20430;-54
2021/09/28 08:14:13;;;;;;;22.90;16.23;;;;;;;19.67;85.47;100561.66;5096893;28;20111;-55
2021/09/28 08:16:39;;;;;;;21.42;16.33;;;;;;;19.68;85.52;100569.75;5096784;28;20120;-56
2021/09/28 08:19:05;;;;;;;19.65;16.92;;;;;;;19.70;85.61;100563.59;5096491;28;20044;-57
2021/09/28 08:21:31;;;;;;;24.77;17.65;;;;;;;19.69;85.70;100557.09;5096564;28;20028;-56
2021/09/28 08:23:56;;;;;;;19.88;16.58;;;;;;;19.69;85.72;100564.84;5096580;28;20032;-52
2021/09/28 08:29:09;;;;;;;20.63;15.88;;;;;;;19.70;86.00;100567.25;5096915;28;20392;-56
2021/09/28 08:31:36;;;;;;;19.83;15.75;;;;;;;19.70;85.32;100569.28;5096363;28;20028;-55
2021/09/28 08:34:03;;;;;;;18.90;15.60;;;;;;;19.68;85.25;100575.47;5096173;28;20344;-55
2021/09/28 08:36:29;;;;;;;16.85;15.02;;;;;;;19.68;84.92;100566.91;5096044;28;20111;-55
2021/09/28 08:38:55;;;;;;;19.35;15.70;;;;;;;19.68;84.61;100571.81;5096300;28;20031;-56
2021/09/28 08:41:21;;;;;;;18.33;14.93;;;;;;;19.68;84.26;100580.38;5096328;28;20028;-56
2021/09/28 08:43:47;;;;;;;15.90;13.07;;;;;;;19.67;83.97;100581.63;5095859;28;20406;-55
2021/09/28 08:46:15;;;;;;;18.23;14.43;;;;;;;19.66;82.83;100585.75;5096351;28;20120;-52
2021/09/28 08:48:42;;;;;;;17.33;14.02;;;;;;;19.64;82.83;100585.41;5096013;28;20031;-55
2021/09/28 08:51:07;;;;;;;18.50;13.32;;;;;;;19.62;82.59;100587.91;5095948;28;20436;-56
2021/09/28 08:53:32;;;;;;;16.48;13.27;;;;;;;19.61;82.39;100580.63;5095877;28;20043;-54
2021/09/28 08:55:58;;;;;;;20.30;13.13;;;;;;;19.60;81.98;100584.75;5096007;28;20308;-54
2021/09/28 08:58:25;;;;;;;16.23;13.38;;;;;;;19.58;81.45;100584.41;5095953;28;20031;-55
2021/09/28 09:00:53;;;;;;;18.50;12.98;;;;;;;19.56;81.20;100586.91;5095593;28;20032;-55
2021/09/28 09:03:30;;;;;;;16.77;12.50;;;;;;;19.55;80.85;100576.78;5096144;28;20020;-55
2021/09/28 09:05:57;;;;;;;13.80;11.57;;;;;;;19.56;81.12;100579.16;5095591;28;20024;-51
2021/09/28 09:08:25;;;;;;;19.58;12.57;;;;;;;19.58;80.62;100581.56;5095805;28;20115;-56
2021/09/28 09:11:09;;;;;;;18.45;12.23;;;;;;;19.58;80.56;100587.25;5096145;28;20058;-54
2021/09/28 09:13:35;;;;;;;15.35;12.57;;;;;;;19.59;80.46;100583.16;5083864;28;20043;-56
2021/09/28 09:16:00;;;;;;;16.67;13.07;;;;;;;19.61;80.80;100587.13;5095857;28;20032;-51
2021/09/28 09:18:26;;;;;;;21.30;12.32;;;;;;;19.70;81.06;100587.22;5095550;28;20297;-56
2021/09/28 09:20:51;;;;;;;15.98;12.60;;;;;;;19.83;81.56;100584.31;5095605;28;20027;-54
2021/09/28 09:23:28;;;;;;;19.25;13.00;;;;;;;19.97;81.02;100580.94;5095599;28;20027;-56
2021/09/28 09:26:17;;;;;;;22.15;12.95;;;;;;;20.11;78.26;100573.94;5095437;28;20446;-55
2021/09/28 09:28:48;;;;;;;15.82;12.43;;;;;;;20.25;78.20;100556.25;5082389;28;20127;-51
2021/09/28 09:31:14;;;;;;;13.98;11.98;;;;;;;20.41;78.10;100572.41;5095242;28;20052;-55
2021/09/28 09:33:42;;;;;;;16.55;12.15;;;;;;;20.55;78.85;100562.53;5095421;28;20047;-56
2021/09/28 09:36:07;;;;;;;15.80;11.90;;;;;;;20.67;77.20;100559.56;5095154;28;20036;-54
2021/09/28 09:39:05;;;;;;;15.73;13.65;;;;;;;20.81;77.73;100557.38;5095056;28;20078;-54
2021/09/28 09:41:32;;;;;;;19.65;12.13;;;;;;;20.92;76.61;100552.84;5083408;28;20036;-56
2021/09/28 09:44:12;;;;;;;14.43;11.73;;;;;;;21.09;77.31;100550.53;5095503;28;20107;-55
2021/09/28 09:46:50;;;;;;;17.05;10.70;;;;;;;21.23;76.00;100546.28;5095387;28;20063;-49
2021/09/28 09:49:21;;;;;;;16.13;11.52;;;;;;;21.37;75.15;100551.44;5077863;28;20657;-51
2021/09/28 09:51:49;;;;;;;17.70;12.73;;;;;;;21.47;74.64;100546.50;5095214;28;20052;-54
2021/09/28 09:54:15;;;;;;;17.38;11.35;;;;;;;21.52;74.44;100554.44;5095402;28;20024;-52
2021/09/28 09:56:41;;;;;;;17.55;11.32;;;;;;;21.56;73.83;100555.09;5095411;28;20071;-54
2021/09/28 09:59:06;;;;;;;13.57;11.27;;;;;;;21.58;72.75;100550.47;5095010;28;20108;-55
2021/09/28 10:01:35;;;;;;;23.05;11.93;;;;;;;21.61;72.90;100548.72;5095161;28;20066;-51
2021/09/28 10:04:11;;;;;;;15.05;10.88;;;;;;;21.64;73.37;100552.72;5095477;28;20126;-55
2021/09/28 10:06:37;;;;;;;16.20;11.35;;;;;;;21.67;73.39;100555.44;5095409;28;20129;-55
2021/09/28 10:09:17;;;;;;;19.00;12.00;;;;;;;21.70;72.63;100547.97;5094941;28;20032;-53
2021/09/28 10:11:43;;;;;;;12.77;11.05;;;;;;;21.73;72.06;100562.09;5081828;28;20024;-53
2021/09/28 10:14:30;;;;;;;11.77;10.27;;;;;;;21.81;71.63;100563.38;5095549;28;20040;-53
2021/09/28 10:16:56;;;;;;;18.02;12.50;;;;;;;21.91;72.85;100561.31;5095346;28;20048;-53
2021/09/28 10:19:28;;;;;;;15.73;11.98;;;;;;;22.02;72.53;100567.34;5095343;28;20344;-52
2021/09/28 10:21:55;;;;;;;13.95;10.95;;;;;;;22.12;72.51;100562.44;5081350;28;20036;-50
2021/09/28 10:24:20;;;;;;;14.75;10.50;;;;;;;22.18;70.82;100566.25;5095172;28;20058;-55
2021/09/28 10:26:58;;;;;;;15.77;10.10;;;;;;;22.20;70.34;100563.72;5094870;28;20416;-56
2021/09/28 10:29:44;;;;;;;13.90;9.35;;;;;;;22.18;69.34;100561.31;5094867;28;20077;-53
2021/09/28 10:32:24;;;;;;;16.67;9.88;;;;;;;22.14;68.48;100560.69;5081946;28;20312;-53
2021/09/28 10:35:05;;;;;;;12.38;10.25;;;;;;;22.10;68.93;100559.25;5094824;28;20039;-50
2021/09/28 10:37:42;;;;;;;11.35;10.02;;;;;;;22.04;68.21;100561.97;5094927;28;20443;-53
2021/09/28 10:40:10;;;;;;;13.73;9.52;;;;;;;22.00;69.33;100566.25;5091700;28;20454;-55
2021/09/28 10:43:05;;;;;;;14.15;9.77;;;;;;;21.97;69.69;100572.94;5094936;28;20036;-53
2021/09/28 10:45:31;;;;;;;11.68;10.02;;;;;;;21.92;69.08;100568.63;5094844;28;20350;-50
2021/09/28 10:48:28;;;;;;;15.02;9.70;;;;;;;21.97;69.38;100561.47;5095867;28;20040;-54
2021/09/28 10:51:21;;;;;;;17.13;11.18;;;;;;;22.06;69.32;100565.16;5076900;28;20036;-54
2021/09/28 10:53:52;;;;;;;13.10;10.05;;;;;;;22.19;70.31;100562.13;5098515;28;20122;-53
2021/09/28 10:56:19;;;;;;;16.17;10.40;;;;;;;22.33;70.73;100567.19;5098684;28;20024;-49
2021/09/28 10:59:02;;;;;;;14.60;10.00;;;;;;;22.42;69.04;100570.03;5098083;28;20119;-53
2021/09/28 11:01:29;;;;;;;12.70;10.02;;;;;;;22.46;67.49;100570.69;5084585;28;20024;-50
2021/09/28 11:03:58;;;;;;;13.13;8.88;;;;;;;22.49;67.96;100568.91;5098272;28;20035;-53
2021/09/28 11:06:45;;;;;;;12.25;8.70;;;;;;;22.50;67.37;100568.44;5076712;28;20032;-53
2021/09/28 11:09:12;;;;;;;12.80;9.13;;;;;;;22.51;66.78;100578.63;5092269;28;20040;-56
2021/09/28 11:11:39;;;;;;;10.93;9.32;;;;;;;22.52;67.49;100557.28;5098278;28;20028;-54
2021/09/28 11:14:07;;;;;;;11.02;9.27;;;;;;;22.59;67.23;100553.28;5097784;28;20036;-55
2021/09/28 11:16:55;;;;;;;12.40;8.95;;;;;;;22.65;66.66;100556.28;5097867;28;20074;-55